createdAt,value
2023-04-29T00:02:11.464Z,8.23
2023-04-29T00:05:15.012Z,8.24
2023-04-29T00:08:18.007Z,8.24
2023-04-29T00:11:20.986Z,8.23
2023-04-29T00:14:24.644Z,8.23
2023-04-29T00:17:27.522Z,8.23
2023-04-29T00:20:30.297Z,8.23
2023-04-29T00:23:36.152Z,8.22
2023-04-29T00:26:38.854Z,8.20
2023-04-29T00:29:41.693Z,8.20
2023-04-29T00:32:44.872Z,8.21
2023-04-29T00:35:47.838Z,8.22
2023-04-29T00:38:50.910Z,8.23
2023-04-29T00:41:54.232Z,8.22
2023-04-29T00:44:57.274Z,8.23
2023-04-29T00:48:00.029Z,8.24
2023-04-29T00:51:04.690Z,8.26
2023-04-29T00:54:09.049Z,8.27
2023-04-29T00:57:12.309Z,8.29
2023-04-29T01:00:16.261Z,8.31
2023-04-29T01:03:19.512Z,8.32
2023-04-29T01:06:49.719Z,8.34
2023-04-29T01:10:15.840Z,8.34
2023-04-29T01:13:30.734Z,8.32
2023-04-29T01:16:44.655Z,8.32
2023-04-29T01:19:57.087Z,8.34
2023-04-29T01:23:00.165Z,8.32
2023-04-29T01:26:03.502Z,8.32
2023-04-29T01:29:51.746Z,8.29
2023-04-29T01:33:27.336Z,8.28
2023-04-29T01:36:51.871Z,8.27
2023-04-29T01:40:10.071Z,8.27
2023-04-29T01:43:20.001Z,8.21
2023-04-29T01:46:24.363Z,8.18
2023-04-29T01:49:31.099Z,8.18
2023-04-29T01:52:33.861Z,8.17
2023-04-29T01:55:36.975Z,8.14
2023-04-29T01:58:55.345Z,8.11
2023-04-29T02:02:10.603Z,8.09
2023-04-29T02:05:17.801Z,8.10
2023-04-29T02:08:27.864Z,8.07
2023-04-29T02:11:32.039Z,8.05
2023-04-29T02:14:36.898Z,8.04
2023-04-29T02:17:41.438Z,8.02
2023-04-29T02:20:44.647Z,7.99
2023-04-29T02:23:47.507Z,7.98
2023-04-29T02:26:50.364Z,7.97
2023-04-29T02:29:53.269Z,7.94
2023-04-29T02:32:56.343Z,7.90
2023-04-29T02:35:59.851Z,7.88
2023-04-29T02:39:02.969Z,7.84
2023-04-29T02:42:05.724Z,7.81
2023-04-29T02:45:09.324Z,7.77
2023-04-29T02:48:12.266Z,7.75
2023-04-29T02:51:16.426Z,7.72
2023-04-29T02:54:19.234Z,7.68
2023-04-29T02:57:22.230Z,7.66
2023-04-29T03:00:25.421Z,7.62
2023-04-29T03:03:28.453Z,7.60
2023-04-29T03:06:31.557Z,7.57
2023-04-29T03:09:34.382Z,7.55
2023-04-29T03:12:37.487Z,7.53
2023-04-29T03:15:40.282Z,7.54
2023-04-29T03:18:44.007Z,7.52
2023-04-29T03:21:46.782Z,7.50
2023-04-29T03:24:49.595Z,7.46
2023-04-29T03:27:52.575Z,7.44
2023-04-29T03:30:56.973Z,7.43
2023-04-29T03:33:59.997Z,7.41
2023-04-29T03:37:02.786Z,7.40
2023-04-29T03:40:07.360Z,7.39
2023-04-29T03:43:10.423Z,7.38
2023-04-29T03:46:13.308Z,7.38
2023-04-29T03:49:16.252Z,7.39
2023-04-29T03:52:19.699Z,7.42
2023-04-29T03:55:24.310Z,7.44
2023-04-29T03:58:27.474Z,7.47
2023-04-29T04:01:30.336Z,7.51
2023-04-29T04:04:33.648Z,7.55
2023-04-29T04:07:36.647Z,7.60
2023-04-29T04:11:03.239Z,7.67
2023-04-29T04:14:09.230Z,7.75
2023-04-29T04:17:12.041Z,7.83
2023-04-29T04:20:16.090Z,7.94
2023-04-29T04:23:19.508Z,8.09
2023-04-29T04:26:23.130Z,8.21
2023-04-29T04:29:39.786Z,8.31
2023-04-29T04:32:46.623Z,8.40
2023-04-29T04:35:50.268Z,8.51
2023-04-29T04:38:53.337Z,8.60
2023-04-29T04:41:57.405Z,8.71
2023-04-29T04:45:01.835Z,8.77
2023-04-29T04:48:19.438Z,8.90
2023-04-29T04:51:26.015Z,9.15
2023-04-29T04:54:28.838Z,9.47
2023-04-29T04:57:39.823Z,9.82
2023-04-29T05:00:46.189Z,10.16
2023-04-29T05:03:49.732Z,10.54
2023-04-29T05:06:52.697Z,10.87
2023-04-29T05:09:56.559Z,11.19
2023-04-29T05:12:59.451Z,11.57
2023-04-29T05:16:06.599Z,11.90
2023-04-29T05:19:10.201Z,12.27
2023-04-29T05:22:15.413Z,12.53
2023-04-29T05:25:18.461Z,12.70
2023-04-29T05:28:21.468Z,12.86
2023-04-29T05:31:24.486Z,12.84
2023-04-29T05:34:27.346Z,12.79
2023-04-29T05:37:32.058Z,12.75
2023-04-29T05:40:42.180Z,12.79
2023-04-29T05:44:03.506Z,12.94
2023-04-29T05:47:07.679Z,13.06
2023-04-29T05:50:11.681Z,13.13
2023-04-29T05:53:15.490Z,13.33
2023-04-29T05:56:19.302Z,13.61
2023-04-29T05:59:22.068Z,13.84
2023-04-29T06:02:28.341Z,13.99
2023-04-29T06:05:32.647Z,13.96
2023-04-29T06:08:46.146Z,13.85
2023-04-29T06:11:56.504Z,14.00
2023-04-29T06:14:59.559Z,14.32
2023-04-29T06:18:03.363Z,14.70
2023-04-29T06:21:06.428Z,15.06
2023-04-29T06:24:09.305Z,15.41
2023-04-29T06:27:12.164Z,15.69
2023-04-29T06:30:15.088Z,15.97
2023-04-29T06:33:17.840Z,16.03
2023-04-29T06:36:20.913Z,16.12
2023-04-29T06:39:49.966Z,15.97
2023-04-29T06:43:16.048Z,16.12
2023-04-29T06:46:34.318Z,16.45
2023-04-29T06:49:44.545Z,16.83
2023-04-29T06:52:47.310Z,17.22
2023-04-29T06:55:51.093Z,17.29
2023-04-29T06:58:56.272Z,17.23
2023-04-29T07:01:59.143Z,17.29
2023-04-29T07:05:02.881Z,17.00
2023-04-29T07:08:06.095Z,16.86
2023-04-29T07:11:08.871Z,16.61
2023-04-29T07:14:11.637Z,16.59
2023-04-29T07:17:14.463Z,16.50
2023-04-29T07:20:17.965Z,16.40
2023-04-29T07:23:20.722Z,16.11
2023-04-29T07:26:23.507Z,15.91
2023-04-29T07:29:26.748Z,15.82
2023-04-29T07:32:31.864Z,15.73
2023-04-29T07:35:38.238Z,15.91
2023-04-29T07:38:41.289Z,16.11
2023-04-29T07:41:44.489Z,16.35
2023-04-29T07:44:47.397Z,16.55
2023-04-29T07:47:50.271Z,16.52
2023-04-29T07:50:53.130Z,16.69
2023-04-29T07:53:55.855Z,17.07
2023-04-29T07:56:59.175Z,17.43
2023-04-29T08:00:02.045Z,17.84
2023-04-29T08:03:05.103Z,17.98
2023-04-29T08:06:09.250Z,17.85
2023-04-29T08:09:12.448Z,17.95
2023-04-29T08:12:17.716Z,18.04
2023-04-29T08:15:20.634Z,18.24
2023-04-29T08:18:23.463Z,18.52
2023-04-29T08:21:27.693Z,18.69
2023-04-29T08:24:31.117Z,18.76
2023-04-29T08:27:33.939Z,18.82
2023-04-29T08:30:42.897Z,18.89
2023-04-29T08:33:46.291Z,18.94
2023-04-29T08:36:49.274Z,18.88
2023-04-29T08:39:52.222Z,18.90
2023-04-29T08:42:56.068Z,18.96
2023-04-29T08:45:59.951Z,18.93
2023-04-29T08:49:04.492Z,18.92
2023-04-29T08:52:07.617Z,18.90
2023-04-29T08:55:10.518Z,18.94
2023-04-29T08:58:14.974Z,18.97
2023-04-29T09:01:18.709Z,19.01
2023-04-29T09:05:19.607Z,19.04
2023-04-29T09:08:24.292Z,19.13
2023-04-29T09:11:28.186Z,19.17
2023-04-29T09:14:34.370Z,19.21
2023-04-29T09:17:40.957Z,19.22
2023-04-29T09:20:43.937Z,19.21
2023-04-29T09:23:49.387Z,19.18
2023-04-29T09:26:52.393Z,19.18
2023-04-29T09:30:02.230Z,19.14
2023-04-29T09:33:08.477Z,19.06
2023-04-29T09:36:11.300Z,19.00
2023-04-29T09:39:16.663Z,19.00
2023-04-29T09:42:19.630Z,18.91
2023-04-29T09:45:41.867Z,18.82
2023-04-29T09:48:44.644Z,18.92
2023-04-29T09:51:55.824Z,18.95
2023-04-29T09:55:06.804Z,19.01
2023-04-29T09:58:28.503Z,19.10
2023-04-29T10:01:32.231Z,19.04
2023-04-29T10:04:36.326Z,19.01
2023-04-29T10:07:41.319Z,18.98
2023-04-29T10:10:46.477Z,18.93
2023-04-29T10:13:52.284Z,18.90
2023-04-29T10:17:22.337Z,18.90
2023-04-29T10:20:26.229Z,18.87
2023-04-29T10:23:31.208Z,18.89
2023-04-29T10:26:37.501Z,18.96
2023-04-29T10:29:41.796Z,18.94
2023-04-29T10:32:50.968Z,18.95
2023-04-29T10:35:56.223Z,18.89
2023-04-29T10:39:02.014Z,18.88
2023-04-29T10:42:16.307Z,18.91
2023-04-29T10:45:31.820Z,18.99
2023-04-29T10:48:34.643Z,19.06
2023-04-29T10:51:42.821Z,19.04
2023-04-29T10:55:02.263Z,19.09
2023-04-29T10:58:06.295Z,19.21
2023-04-29T11:01:11.971Z,19.12
2023-04-29T11:04:16.272Z,19.09
2023-04-29T11:07:30.057Z,19.04
2023-04-29T11:10:43.223Z,18.94
2023-04-29T11:13:48.018Z,18.92
2023-04-29T11:17:09.390Z,18.87
2023-04-29T11:20:14.914Z,18.80
2023-04-29T11:23:18.188Z,18.70
2023-04-29T11:26:21.706Z,18.62
2023-04-29T11:29:25.790Z,18.62
2023-04-29T11:32:33.772Z,18.65
2023-04-29T11:35:39.891Z,18.64
2023-04-29T11:38:43.348Z,18.69
2023-04-29T11:41:46.221Z,18.73
2023-04-29T11:44:53.617Z,18.58
2023-04-29T11:47:56.603Z,18.48
2023-04-29T11:51:00.032Z,18.43
2023-04-29T11:54:03.065Z,18.37
2023-04-29T11:57:05.926Z,18.36
2023-04-29T12:00:12.856Z,18.37
2023-04-29T12:03:17.322Z,18.35
2023-04-29T12:06:20.313Z,18.30
2023-04-29T12:09:23.510Z,18.22
2023-04-29T12:12:27.802Z,18.17
2023-04-29T12:15:32.219Z,18.10
2023-04-29T12:18:35.452Z,18.02
2023-04-29T12:21:49.156Z,17.94
2023-04-29T12:24:54.629Z,17.90
2023-04-29T12:28:01.240Z,17.83
2023-04-29T12:31:03.961Z,17.79
2023-04-29T12:34:09.839Z,17.72
2023-04-29T12:37:15.421Z,17.70
2023-04-29T12:40:20.686Z,17.67
2023-04-29T12:43:32.244Z,17.61
2023-04-29T12:46:45.532Z,17.64
2023-04-29T12:49:49.278Z,17.65
2023-04-29T12:52:52.301Z,17.65
2023-04-29T12:55:55.490Z,17.62
2023-04-29T12:59:06.566Z,17.56
2023-04-29T13:02:09.430Z,17.53
2023-04-29T13:05:12.933Z,17.55
2023-04-29T13:08:15.927Z,17.54
2023-04-29T13:11:20.110Z,17.51
2023-04-29T13:14:23.232Z,17.49
2023-04-29T13:17:26.092Z,17.50
2023-04-29T13:20:28.843Z,17.51
2023-04-29T13:23:31.689Z,17.49
2023-04-29T13:26:34.457Z,17.46
2023-04-29T13:29:37.183Z,17.42
2023-04-29T13:32:46.357Z,17.36
2023-04-29T13:35:54.377Z,17.30
2023-04-29T13:38:57.140Z,17.25
2023-04-29T13:42:00.035Z,17.26
2023-04-29T13:45:04.015Z,17.26
2023-04-29T13:48:24.663Z,17.25
2023-04-29T13:54:58.833Z,17.50
2023-04-29T13:58:43.847Z,17.57
2023-04-29T14:02:14.866Z,17.65
2023-04-29T14:04:48.232Z,17.71
2023-04-29T14:07:51.784Z,17.82
2023-04-29T14:10:54.801Z,17.94
2023-04-29T14:13:57.510Z,18.07
2023-04-29T14:17:01.314Z,18.19
2023-04-29T14:20:05.036Z,18.30
2023-04-29T14:23:07.797Z,18.29
2023-04-29T14:26:27.057Z,18.28
2023-04-29T14:29:30.976Z,18.33
2023-04-29T14:32:33.919Z,18.39
2023-04-29T14:35:36.726Z,18.46
2023-04-29T14:38:39.435Z,18.55
2023-04-29T14:41:42.611Z,18.58
2023-04-29T14:44:45.477Z,18.68
2023-04-29T14:47:48.237Z,18.71
2023-04-29T14:50:51.145Z,18.67
2023-04-29T14:53:53.854Z,18.65
2023-04-29T14:56:57.041Z,18.58
2023-04-29T14:59:59.747Z,18.53
2023-04-29T15:03:04.089Z,18.44
2023-04-29T15:06:07.205Z,18.35
2023-04-29T15:09:09.933Z,18.29
2023-04-29T15:12:14.530Z,18.27
2023-04-29T15:15:17.566Z,18.19
2023-04-29T15:18:23.154Z,18.10
2023-04-29T15:21:26.887Z,18.03
2023-04-29T15:24:29.770Z,17.94
2023-04-29T15:27:34.738Z,17.92
2023-04-29T15:30:37.784Z,17.92
2023-04-29T15:33:40.669Z,17.95
2023-04-29T15:36:43.804Z,17.96
2023-04-29T15:39:46.563Z,17.95
2023-04-29T15:42:49.311Z,17.91
2023-04-29T15:45:52.098Z,17.83
2023-04-29T15:48:55.073Z,17.78
2023-04-29T15:51:57.948Z,17.72
2023-04-29T15:55:00.908Z,17.64
2023-04-29T15:58:03.739Z,17.56
2023-04-29T16:01:06.738Z,17.52
2023-04-29T16:04:09.488Z,17.49
2023-04-29T16:07:12.480Z,17.40
2023-04-29T16:10:15.363Z,17.32
2023-04-29T16:13:18.481Z,17.27
2023-04-29T16:16:21.506Z,17.20
2023-04-29T16:19:24.378Z,17.15
2023-04-29T16:22:28.164Z,17.08
2023-04-29T16:25:31.040Z,17.00
2023-04-29T16:28:33.826Z,16.92
2023-04-29T16:31:36.592Z,16.89
2023-04-29T16:34:39.497Z,16.88
2023-04-29T16:37:42.308Z,16.84
2023-04-29T16:40:45.287Z,16.79
2023-04-29T16:43:48.105Z,16.75
2023-04-29T16:46:51.588Z,16.70
2023-04-29T16:49:55.351Z,16.68
2023-04-29T16:52:58.494Z,16.67
2023-04-29T16:56:01.453Z,16.63
2023-04-29T16:59:04.301Z,16.59
2023-04-29T17:02:07.516Z,16.55
2023-04-29T17:05:11.227Z,16.51
2023-04-29T17:08:14.839Z,16.47
2023-04-29T17:11:18.538Z,16.42
2023-04-29T17:14:21.437Z,16.35
2023-04-29T17:17:24.342Z,16.27
2023-04-29T17:20:27.369Z,16.25
2023-04-29T17:23:32.957Z,16.21
2023-04-29T17:26:35.687Z,16.15
2023-04-29T17:29:38.711Z,16.08
2023-04-29T17:32:44.282Z,16.01
2023-04-29T17:35:47.575Z,15.95
2023-04-29T17:38:50.439Z,15.88
2023-04-29T17:41:53.308Z,15.82
2023-04-29T17:44:56.183Z,15.77
2023-04-29T17:47:59.035Z,15.71
2023-04-29T17:51:01.926Z,15.66
2023-04-29T17:54:06.595Z,15.60
2023-04-29T17:57:09.396Z,15.53
2023-04-29T18:00:12.852Z,15.44
2023-04-29T18:03:15.750Z,15.35
2023-04-29T18:06:19.117Z,15.28
2023-04-29T18:09:22.001Z,15.22
2023-04-29T18:12:25.073Z,15.16
2023-04-29T18:15:28.146Z,15.13
2023-04-29T18:18:30.980Z,15.07
2023-04-29T18:21:33.770Z,15.01
2023-04-29T18:24:36.498Z,14.94
2023-04-29T18:27:39.298Z,14.86
2023-04-29T18:30:42.438Z,14.80
2023-04-29T18:33:45.711Z,14.76
2023-04-29T18:36:48.551Z,14.70
2023-04-29T18:39:51.387Z,14.64
2023-04-29T18:42:54.270Z,14.59
2023-04-29T18:45:58.573Z,14.55
2023-04-29T18:49:01.344Z,14.52
2023-04-29T18:52:04.876Z,14.48
2023-04-29T18:55:08.613Z,14.45
2023-04-29T18:58:11.621Z,14.40
2023-04-29T19:01:14.466Z,14.36
2023-04-29T19:04:17.431Z,14.31
2023-04-29T19:07:20.337Z,14.25
2023-04-29T19:10:23.409Z,14.20
2023-04-29T19:13:27.866Z,14.17
2023-04-29T19:16:30.631Z,14.14
2023-04-29T19:19:33.708Z,14.12
2023-04-29T19:22:37.399Z,14.08
2023-04-29T19:25:40.312Z,14.03
2023-04-29T19:28:43.012Z,14.01
2023-04-29T19:31:46.126Z,13.98
2023-04-29T19:34:48.994Z,13.95
2023-04-29T19:37:54.696Z,13.92
2023-04-29T19:40:57.496Z,13.90
2023-04-29T19:44:00.456Z,13.89
2023-04-29T19:47:03.838Z,13.87
2023-04-29T19:50:07.028Z,13.87
2023-04-29T19:53:11.324Z,13.87
2023-04-29T19:56:14.186Z,13.86
2023-04-29T19:59:16.943Z,13.83
2023-04-29T20:02:19.865Z,13.81
2023-04-29T20:05:22.983Z,13.80
2023-04-29T20:08:26.721Z,13.81
2023-04-29T20:11:29.687Z,13.79
2023-04-29T20:14:32.958Z,13.78
2023-04-29T20:17:37.539Z,13.70
2023-04-29T20:20:40.407Z,13.64
2023-04-29T20:23:43.215Z,13.61
2023-04-29T20:26:46.244Z,13.57
2023-04-29T20:29:48.971Z,13.54
2023-04-29T20:32:51.776Z,13.51
2023-04-29T20:35:54.665Z,13.47
2023-04-29T20:38:57.465Z,13.44
2023-04-29T20:42:00.527Z,13.41
2023-04-29T20:45:04.783Z,13.40
2023-04-29T20:48:07.853Z,13.37
2023-04-29T20:51:12.333Z,13.35
2023-04-29T20:54:15.639Z,13.33
2023-04-29T20:57:18.417Z,13.30
2023-04-29T21:00:21.183Z,13.29
2023-04-29T21:03:24.610Z,13.30
2023-04-29T21:06:27.616Z,13.29
2023-04-29T21:09:30.729Z,13.27
2023-04-29T21:12:33.453Z,13.26
2023-04-29T21:15:36.458Z,13.25
2023-04-29T21:18:39.236Z,13.20
2023-04-29T21:21:42.117Z,13.13
2023-04-29T21:24:44.969Z,13.06
2023-04-29T21:27:47.725Z,13.05
2023-04-29T21:30:50.948Z,13.02
2023-04-29T21:33:53.725Z,12.96
2023-04-29T21:36:57.301Z,12.92
2023-04-29T21:40:00.543Z,12.91
2023-04-29T21:43:03.458Z,12.90
2023-04-29T21:46:07.724Z,12.90
2023-04-29T21:49:10.688Z,12.88
2023-04-29T21:52:13.533Z,12.88
2023-04-29T21:55:16.282Z,12.89
2023-04-29T21:58:20.967Z,12.89
2023-04-29T22:01:27.179Z,12.88
2023-04-29T22:04:30.387Z,12.84
2023-04-29T22:07:33.173Z,12.80
2023-04-29T22:10:40.052Z,12.79
2023-04-29T22:13:45.169Z,12.76
2023-04-29T22:16:48.025Z,12.74
2023-04-29T22:19:50.922Z,12.71
2023-04-29T22:22:54.231Z,12.70
2023-04-29T22:25:57.094Z,12.69
2023-04-29T22:28:59.918Z,12.67
2023-04-29T22:32:02.917Z,12.65
2023-04-29T22:35:06.505Z,12.62
2023-04-29T22:38:09.828Z,12.60
2023-04-29T22:41:12.938Z,12.57
2023-04-29T22:44:16.090Z,12.54
2023-04-29T22:47:18.878Z,12.51
2023-04-29T22:50:21.648Z,12.47
2023-04-29T22:53:24.587Z,12.43
2023-04-29T22:56:29.000Z,12.38
2023-04-29T22:59:31.863Z,12.33
2023-04-29T23:02:34.728Z,12.29
2023-04-29T23:05:37.752Z,12.27
2023-04-29T23:08:40.739Z,12.25
2023-04-29T23:11:43.584Z,12.22
2023-04-29T23:14:46.571Z,12.19
2023-04-29T23:17:49.642Z,12.15
2023-04-29T23:20:53.054Z,12.13
2023-04-29T23:23:56.232Z,12.12
2023-04-29T23:26:59.559Z,12.10
2023-04-29T23:30:02.748Z,12.09
2023-04-29T23:33:05.797Z,12.07
2023-04-29T23:36:08.647Z,12.05
2023-04-29T23:39:11.462Z,12.03
2023-04-29T23:42:14.204Z,12.04
2023-04-29T23:45:17.029Z,12.06
2023-04-29T23:48:19.968Z,12.10
2023-04-29T23:51:22.844Z,12.12
2023-04-29T23:54:25.614Z,12.15
2023-04-29T23:57:28.387Z,12.17
